Flight Track Log - Related Links

Times and Time Zones

All times are in EDT time to prevent confusion due to time zone crossing. See the N640SP flight status page for this flight to view local times or setup timezone preferences in your user account.

Time Position Orientation Groundspeed Altitude Reporting Facility
EDT Latitude Longitude Course Direction KTS MPH feet Rate Location/Type
Thu 02:55:14 PM 30.8008 -86.0728 125° Southeast 127 146 2,700  Level Jacksonville Center
Thu 02:57:21 PM 30.7589 -86.0014 124° Southeast 127 146 2,600 -64 Descending Jacksonville Center
Thu 02:58:22 PM 30.7514 -85.9625 103° East 127 146 2,500 -49 Descending Jacksonville Center
Thu 02:59:23 PM 30.7567 -85.9214 81° East 127 146 2,500  Level Jacksonville Center
Thu 03:00:24 PM 30.7597 -85.8806 85° East 127 146 2,500 -49 Level Jacksonville Center
Thu 03:01:25 PM 30.7669 -85.8372 79° East 128 147 2,400  Descending Jacksonville Center
Thu 03:02:00 PM 30.0973 -86.0130 125° Southeast  Level Estimated
Thu 03:02:26 PM 30.7742 -85.8011 77° East 125 144 2,500  Level Jacksonville Center
Thu 03:03:27 PM 30.7811 -85.7603 79° East 125 144 2,600 49 Climbing Jacksonville Center
Thu 03:04:28 PM 30.7864 -85.7194 81° East 128 147 2,600  Level Jacksonville Center
Thu 03:05:28 PM 30.7936 -85.6761 79° East 133 153 2,600  Level Jacksonville Center
Thu 03:06:29 PM 30.7925 -85.6325 92° East 133 153 2,600 -49 Level Jacksonville Center
Thu 03:07:30 PM 30.7911 -85.5914 92° East 134 154 2,500 -49 Descending Jacksonville Center
Thu 03:08:31 PM 30.7839 -85.5475 101° East 130 150 2,500  Level Jacksonville Center
Thu 03:09:32 PM 30.7825 -85.5039 92° East 130 150 2,500  Level Jacksonville Center
Thu 03:10:33 PM 30.7875 -85.4631 82° East 131 151 2,500  Level Jacksonville Center
Thu 03:11:34 PM 30.7886 -85.4172 88° East 133 153 2,500  Level Jacksonville Center
Thu 03:12:35 PM 30.7914 -85.3761 85° East 133 153 2,500 -49 Level Jacksonville Center
Thu 03:13:36 PM 30.7903 -85.3303 92° East 131 151 2,400 -50 Descending Jacksonville Center
Thu 03:14:36 PM 30.7889 -85.2889 92° East 130 150 2,400  Level Jacksonville Center
Thu 03:15:37 PM 30.7833 -85.2478 99° East 129 148 2,400 -49 Level Jacksonville Center
Thu 03:16:38 PM 30.7822 -85.2042 92° East 132 152 2,300 -49 Descending Jacksonville Center
Thu 03:17:39 PM 30.7828 -85.1608 89° East 129 148 2,300 Level Jacksonville Center
Thu 03:19:00 PM 30.7765 -85.1098 139° Southeast  Level FlightAware Approximate
Thu 03:26:00 PM 30.5822 -84.9390 144° Southeast  Level FlightAware Approximate
Thu 03:27:00 PM 30.5540 -84.9153 144° Southeast  Level FlightAware Approximate
Thu 03:28:00 PM 30.5258 -84.8915 144° Southeast  Level FlightAware Approximate
Thu 03:29:00 PM 30.4977 -84.8678 144° Southeast  Level FlightAware Approximate
Thu 03:30:00 PM 30.4695 -84.8441 144° Southeast  Level FlightAware Approximate
Thu 03:31:00 PM 30.4413 -84.8204 144° Southeast  Level FlightAware Approximate
Thu 03:32:00 PM 30.4131 -84.7968 144° Southeast  Level FlightAware Approximate
Thu 03:33:00 PM 30.3849 -84.7731 144° Southeast  Level FlightAware Approximate
Thu 03:34:00 PM 30.3567 -84.7494 144° Southeast  Level FlightAware Approximate
Thu 03:35:00 PM 30.3284 -84.7258 144° Southeast  Level FlightAware Approximate
Thu 03:36:00 PM 30.3002 -84.7022 144° Southeast  Level FlightAware Approximate
Thu 03:37:00 PM 30.2720 -84.6786 144° Southeast  Level FlightAware Approximate
Thu 03:38:00 PM 30.2438 -84.6550 144° Southeast  Level FlightAware Approximate
Thu 03:39:00 PM 30.2156 -84.6314 144° Southeast  Level FlightAware Approximate
Thu 03:40:00 PM 30.1873 -84.6078 144° Southeast  Level FlightAware Approximate
Thu 03:41:00 PM 30.1591 -84.5843 144° Southeast  Level FlightAware Approximate
Thu 03:42:00 PM 30.1308 -84.5608 144° Southeast  Level FlightAware Approximate
Thu 03:43:00 PM 30.1026 -84.5372 144° Southeast  Level FlightAware Approximate
Thu 03:44:00 PM 30.0744 -84.5137 144° Southeast  Level FlightAware Approximate
Thu 03:45:00 PM 30.0461 -84.4902 144° Southeast  Level FlightAware Approximate
Thu 03:46:00 PM 30.0179 -84.4667 144° Southeast  Level FlightAware Approximate
Thu 03:47:00 PM 29.9896 -84.4433 144° Southeast  Level FlightAware Approximate
Thu 03:48:00 PM 29.9613 -84.4198 144° Southeast  Level FlightAware Approximate
Thu 03:49:00 PM 29.9331 -84.3963 144° Southeast  Level FlightAware Approximate
Thu 03:50:00 PM 29.9048 -84.3729 144° Southeast  Level FlightAware Approximate
Thu 03:51:00 PM 29.8765 -84.3495 144° Southeast  Level FlightAware Approximate
Thu 03:52:00 PM 29.8482 -84.3261 144° Southeast  Level FlightAware Approximate
Thu 03:53:00 PM 29.8199 -84.3027 144° Southeast  Level FlightAware Approximate
Thu 03:54:00 PM 29.7923 -84.2783 142° Southeast  Level FlightAware Approximate
Thu 03:54:16 PM 30.1622 -83.9233 142° Southeast 121 139 2,400  Level Jacksonville Center
Thu 03:55:00 PM 29.7647 -84.2539 142° Southeast  Level FlightAware Approximate
Thu 03:55:16 PM 30.1458 -83.8894 119° Southeast 121 139 2,300  Level Jacksonville Center
Thu 03:56:00 PM 29.7371 -84.2294 142° Southeast  Level FlightAware Approximate
Thu 03:57:00 PM 29.7096 -84.2049 142° Southeast  Level FlightAware Approximate
Thu 03:57:00 PM 30.0910 -83.8602 155° Southeast  Level Estimated
Thu 03:58:00 PM 29.6820 -84.1805 142° Southeast  Level FlightAware Approximate
Thu 03:59:00 PM 29.6544 -84.1561 142° Southeast  Level FlightAware Approximate
Thu 04:04:00 PM 29.8697 -83.7425 155° Southeast  Level Estimated
Thu 04:05:00 PM 29.8381 -83.7258 155° Southeast  Level Estimated
Thu 04:06:00 PM 29.8064 -83.7090 155° Southeast  Level Estimated
Thu 04:07:00 PM 29.7748 -83.6923 155° Southeast  Level Estimated
Thu 04:08:00 PM 29.7432 -83.6755 155° Southeast  Level Estimated
Thu 04:09:00 PM 29.7115 -83.6588 155° Southeast  Level Estimated
Thu 04:10:00 PM 29.6799 -83.6421 155° Southeast  Level Estimated
Thu 04:11:00 PM 29.6483 -83.6254 155° Southeast  Level Estimated
Thu 04:12:00 PM 29.6166 -83.6087 155° Southeast  Level Estimated
Thu 04:13:00 PM 29.5850 -83.5920 155° Southeast  Level Estimated
Thu 04:14:00 PM 29.5533 -83.5753 155° Southeast  Level Estimated
Thu 04:15:00 PM 29.5217 -83.5587 155° Southeast  Level Estimated
Thu 04:16:00 PM 29.4900 -83.5420 155° Southeast  Level Estimated
Thu 04:17:00 PM 29.4584 -83.5254 155° Southeast  Level Estimated
Thu 04:18:00 PM 29.4267 -83.5087 155° Southeast  Level Estimated
Thu 04:19:00 PM 29.3951 -83.4921 155° Southeast  Level Estimated
Thu 04:20:00 PM 29.3634 -83.4755 155° Southeast  Level Estimated
Thu 04:21:00 PM 29.3317 -83.4589 155° Southeast  Level Estimated
Thu 04:22:00 PM 29.3001 -83.4423 155° Southeast  Level Estimated
Thu 04:23:00 PM 29.2684 -83.4257 155° Southeast  Level Estimated
Thu 04:24:00 PM 29.2367 -83.4092 155° Southeast  Level Estimated
Thu 04:25:00 PM 29.2051 -83.3926 155° Southeast  Level Estimated
Thu 04:26:00 PM 29.1734 -83.3761 155° Southeast  Level Estimated
Thu 04:27:00 PM 29.1417 -83.3595 155° Southeast  Level Estimated
Thu 04:28:00 PM 29.1100 -83.3430 155° Southeast  Level Estimated
Thu 04:29:00 PM 29.0784 -83.3265 155° Southeast  Level Estimated
Thu 04:30:00 PM 29.0467 -83.3100 156° South  Level Estimated
Thu 04:31:00 PM 29.0150 -83.2935 156° South  Level Estimated
Thu 04:32:00 PM 28.9833 -83.2770 156° South  Level Estimated
Thu 04:33:00 PM 28.9516 -83.2605 156° South  Level Estimated
Thu 04:34:00 PM 28.9199 -83.2440 156° South  Level Estimated
Thu 04:35:00 PM 28.8883 -83.2276 156° South  Level Estimated
Thu 04:36:00 PM 28.8566 -83.2111 156° South  Level Estimated
Thu 04:37:00 PM 28.8249 -83.1947 156° South  Level Estimated
Thu 04:38:00 PM 28.7932 -83.1782 156° South  Level Estimated
Thu 04:39:00 PM 28.7615 -83.1618 156° South  Level Estimated
Thu 04:40:00 PM 28.7298 -83.1454 156° South  Level Estimated
Thu 04:41:00 PM 28.6981 -83.1290 156° South  Level Estimated
Thu 04:42:00 PM 28.6664 -83.1126 156° South  Level Estimated
Thu 04:43:00 PM 28.6347 -83.0962 156° South  Level Estimated
Thu 04:44:00 PM 28.6029 -83.0799 156° South  Level Estimated
Thu 04:45:00 PM 28.5712 -83.0635 156° South  Level Estimated
Thu 04:46:00 PM 28.5395 -83.0472 156° South  Level Estimated
Thu 04:47:00 PM 28.5078 -83.0308 156° South  Level Estimated
Thu 04:48:00 PM 28.4761 -83.0145 156° South  Level Estimated
Thu 04:49:00 PM 28.4444 -82.9982 156° South  Level Estimated
Thu 04:50:00 PM 28.4127 -82.9819 156° South  Level Estimated
Thu 04:51:00 PM 28.3809 -82.9656 156° South  Level Estimated
Thu 04:52:00 PM 28.3492 -82.9493 156° South  Level Estimated
Thu 04:53:00 PM 28.3175 -82.9330 156° South  Level Estimated
Thu 04:54:00 PM 28.2858 -82.9167 156° South  Level Estimated
Thu 04:55:00 PM 28.2540 -82.9005 156° South  Level Estimated
Thu 04:56:00 PM 28.2223 -82.8842 156° South  Level Estimated
Thu 04:57:00 PM 28.1906 -82.8680 156° South  Level Estimated
Thu 04:58:00 PM 28.1588 -82.8517 156° South  Level Estimated
Thu 04:59:00 PM 28.1271 -82.8355 156° South  Level Estimated
Thu 05:00:00 PM 28.0954 -82.8193 156° South  Level Estimated
Thu 05:01:00 PM 28.0636 -82.8031 156° South  Level Estimated
Thu 05:02:00 PM 28.0319 -82.7869 156° South  Level Estimated
Thu 05:03:00 PM 28.0001 -82.7707 156° South  Level Estimated
Thu 05:04:00 PM 27.9765 -82.7587 156° South  Level Estimated
Thu 05:05:00 PM 27.9765 -82.7587 53° Northeast  Level Estimated
Thu 05:06:00 PM 27.9765 -82.7587 53° Northeast  Level Estimated
Thu 05:07:00 PM 27.9765 -82.7587 53° Northeast  Level Estimated
Thu 05:08:00 PM 27.9765 -82.7587 53° Northeast  Level Estimated
Thu 05:09:00 PM 27.9765 -82.7587 53° Northeast  Level Estimated
Thu 05:10:00 PM 27.9765 -82.7587 53° Northeast  Level Estimated
Thu 05:11:00 PM 27.9765 -82.7587 53° Northeast  Level Estimated
Thu 05:12:00 PM 27.9765 -82.7587 53° Northeast  Level Estimated
Thu 05:13:00 PM 27.9765 -82.7587 53° Northeast  Level Estimated
Thu 05:14:00 PM 27.9765 -82.7587 53° Northeast  Level Estimated

Login

Don't have an account? Register now (free) for customized features, flight alerts, and more!